Terminal Aerodrome Forecast
Issued by NWS

Home | Current Version | Previous Version | Text Only | Print | Product List | Glossary On
Versions: 1 2 3 4 5 6 7 8 9 10 11 12 13 14
000
FTUS45 KABQ 101129
TAFSAF
TAF
KSAF 101129Z 1012/1112 36010KT P6SM SCT200
     FM102000 24011KT P6SM SCT200
     FM110130 31011KT P6SM SCT100=

USA.gov is the U.S. government's official web portal to all federal, state and local government web resources and services.